createdAt,value
2023-05-15T00:01:48.111Z,95461.94
2023-05-15T00:04:14.911Z,95464.06
2023-05-15T00:06:41.670Z,95460.88
2023-05-15T00:09:09.101Z,95457.75
2023-05-15T00:11:35.837Z,95459.88
2023-05-15T00:14:02.802Z,95450.44
2023-05-15T00:16:29.650Z,95441.44
2023-05-15T00:18:56.486Z,95446.69
2023-05-15T00:21:23.318Z,95448.53
2023-05-15T00:23:50.308Z,95442.50
2023-05-15T00:26:17.161Z,95426.38
2023-05-15T00:28:43.895Z,95416.75
2023-05-15T00:31:12.570Z,95414.38
2023-05-15T00:33:40.644Z,95405.56
2023-05-15T00:36:07.873Z,95418.84
2023-05-15T00:38:35.044Z,95426.28
2023-05-15T00:41:02.644Z,95424.63
2023-05-15T00:43:30.350Z,95416.03
2023-05-15T00:45:59.224Z,95423.34
2023-05-15T00:48:28.075Z,95422.72
2023-05-15T00:50:57.561Z,95414.75
2023-05-15T00:53:24.599Z,95411.06
2023-05-15T00:55:53.155Z,95404.94
2023-05-15T00:58:22.802Z,95410.44
2023-05-15T01:00:51.157Z,95408.75
2023-05-15T01:03:18.431Z,95404.63
2023-05-15T01:05:46.638Z,95414.19
2023-05-15T01:08:23.693Z,95410.06
2023-05-15T01:10:52.076Z,95402.63
2023-05-15T01:13:23.472Z,95400.59
2023-05-15T01:15:51.040Z,95399.97
2023-05-15T01:18:18.521Z,95401.16
2023-05-15T01:20:48.439Z,95399.13
2023-05-15T01:23:47.275Z,95395.84
2023-05-15T01:26:28.341Z,95399.88
2023-05-15T01:29:30.393Z,95389.06
2023-05-15T01:32:09.235Z,95387.59
2023-05-15T01:38:57.608Z,95389.31
2023-05-15T01:41:28.826Z,95389.31
2023-05-15T01:44:32.460Z,95390.31
2023-05-15T01:47:01.897Z,95390.41
2023-05-15T01:49:30.980Z,95391.41
2023-05-15T01:52:05.870Z,95395.41
2023-05-15T01:54:33.691Z,95390.66
2023-05-15T01:57:00.741Z,95387.16
2023-05-15T01:59:29.253Z,95384.94
2023-05-15T02:02:00.028Z,95385.28
2023-05-15T02:04:27.216Z,95380.31
2023-05-15T02:06:55.973Z,95382.84
2023-05-15T02:09:24.047Z,95384.22
2023-05-15T02:11:51.498Z,95375.13
2023-05-15T02:14:18.846Z,95389.28
2023-05-15T02:16:46.884Z,95387.16
2023-05-15T02:19:14.023Z,95378.91
2023-05-15T02:21:40.750Z,95375.63
2023-05-15T02:24:07.498Z,95382.03
2023-05-15T02:26:34.181Z,95376.44
2023-05-15T02:29:21.311Z,95376.13
2023-05-15T02:32:01.818Z,95382.44
2023-05-15T02:34:53.399Z,95375.50
2023-05-15T02:37:28.137Z,95375.31
2023-05-15T02:40:00.210Z,95387.72
2023-05-15T02:42:28.266Z,95383.28
2023-05-15T02:44:56.129Z,95386.75
2023-05-15T02:47:24.222Z,95376.47
2023-05-15T02:49:51.906Z,95383.97
2023-05-15T02:52:18.547Z,95386.34
2023-05-15T02:54:45.365Z,95385.72
2023-05-15T02:57:12.105Z,95386.16
2023-05-15T02:59:38.938Z,95379.88
2023-05-15T03:02:06.123Z,95375.22
2023-05-15T03:04:33.053Z,95374.09
2023-05-15T03:06:59.820Z,95379.56
2023-05-15T03:09:26.505Z,95377.09
2023-05-15T03:11:53.282Z,95384.59
2023-05-15T03:14:19.972Z,95383.56
2023-05-15T03:16:46.757Z,95382.44
2023-05-15T03:19:13.831Z,95397.38
2023-05-15T03:21:40.567Z,95383.16
2023-05-15T03:24:07.579Z,95394.56
2023-05-15T03:26:34.330Z,95388.78
2023-05-15T03:29:02.333Z,95390.44
2023-05-15T03:31:29.207Z,95399.69
2023-05-15T03:33:55.977Z,95397.75
2023-05-15T03:36:22.816Z,95402.03
2023-05-15T03:38:49.544Z,95402.03
2023-05-15T03:41:16.302Z,95392.78
2023-05-15T03:43:43.166Z,95403.69
2023-05-15T03:46:09.905Z,95400.06
2023-05-15T03:48:36.618Z,95389.13
2023-05-15T03:51:04.000Z,95400.41
2023-05-15T03:53:30.749Z,95385.50
2023-05-15T03:55:57.483Z,95391.09
2023-05-15T03:58:24.290Z,95382.84
2023-05-15T04:00:51.143Z,95394.41
2023-05-15T04:03:19.257Z,95393.09
2023-05-15T04:05:50.150Z,95387.28
2023-05-15T04:08:17.552Z,95396.41
2023-05-15T04:10:44.376Z,95390.75
2023-05-15T04:13:11.024Z,95389.28
2023-05-15T04:15:37.985Z,95396.25
2023-05-15T04:18:05.072Z,95394.75
2023-05-15T04:20:32.361Z,95383.66
2023-05-15T04:22:59.094Z,95390.63
2023-05-15T04:25:26.325Z,95391.91
2023-05-15T04:27:53.724Z,95393.44
2023-05-15T04:30:20.827Z,95397.09
2023-05-15T04:32:47.955Z,95391.97
2023-05-15T04:35:18.001Z,95399.44
2023-05-15T04:37:47.705Z,95392.81
2023-05-15T04:40:18.437Z,95407.19
2023-05-15T04:42:45.189Z,95391.31
2023-05-15T04:45:11.992Z,95400.78
2023-05-15T04:47:41.414Z,95398.78
2023-05-15T04:50:09.283Z,95398.44
2023-05-15T04:52:36.032Z,95404.38
2023-05-15T04:55:02.813Z,95401.09
2023-05-15T04:57:30.496Z,95388.19
2023-05-15T04:59:58.342Z,95392.47
2023-05-15T05:02:25.552Z,95392.34
2023-05-15T05:04:52.780Z,95395.22
2023-05-15T05:07:19.573Z,95407.78
2023-05-15T05:09:46.309Z,95389.59
2023-05-15T05:12:13.216Z,95391.44
2023-05-15T05:14:42.334Z,95392.31
2023-05-15T05:17:09.460Z,95394.91
2023-05-15T05:19:36.198Z,95382.13
2023-05-15T05:22:05.727Z,95393.34
2023-05-15T05:24:32.850Z,95394.56
2023-05-15T05:27:00.028Z,95394.25
2023-05-15T05:29:26.728Z,95396.34
2023-05-15T05:31:53.756Z,95402.28
2023-05-15T05:34:20.696Z,95398.19
2023-05-15T05:36:47.677Z,95399.53
2023-05-15T05:39:16.329Z,95388.47
2023-05-15T05:41:43.935Z,95385.34
2023-05-15T05:44:10.685Z,95385.84
2023-05-15T05:46:37.389Z,95381.16
2023-05-15T05:49:04.229Z,95383.03
2023-05-15T05:51:31.820Z,95372.72
2023-05-15T05:53:58.543Z,95362.84
2023-05-15T05:56:26.872Z,95362.63
2023-05-15T05:58:53.921Z,95362.00
2023-05-15T06:01:21.222Z,95372.63
2023-05-15T06:03:48.284Z,95376.69
2023-05-15T06:06:15.021Z,95360.09
2023-05-15T06:08:41.757Z,95361.28
2023-05-15T06:11:08.447Z,95361.38
2023-05-15T06:13:35.213Z,95360.22
2023-05-15T06:16:02.018Z,95364.44
2023-05-15T06:18:28.905Z,95372.69
2023-05-15T06:20:55.833Z,95366.88
2023-05-15T06:23:24.317Z,95368.13
2023-05-15T06:25:51.335Z,95366.25
2023-05-15T06:28:18.321Z,95368.09
2023-05-15T06:30:44.968Z,95369.88
2023-05-15T06:33:13.148Z,95362.69
2023-05-15T06:35:40.101Z,95364.66
2023-05-15T06:38:06.832Z,95365.41
2023-05-15T06:40:33.556Z,95370.19
2023-05-15T06:43:00.268Z,95366.84
2023-05-15T06:45:27.861Z,95366.56
2023-05-15T06:47:54.907Z,95367.13
2023-05-15T06:50:21.837Z,95377.25
2023-05-15T06:52:48.583Z,95372.38
2023-05-15T06:55:15.352Z,95371.66
2023-05-15T06:57:42.039Z,95370.06
2023-05-15T07:00:09.231Z,95369.13
2023-05-15T07:02:36.143Z,95378.06
2023-05-15T07:05:03.357Z,95371.28
2023-05-15T07:07:30.171Z,95372.75
2023-05-15T07:09:56.858Z,95381.28
2023-05-15T07:12:23.639Z,95367.47
2023-05-15T07:14:50.382Z,95371.41
2023-05-15T07:17:17.263Z,95378.22
2023-05-15T07:19:44.721Z,95371.31
2023-05-15T07:22:11.395Z,95365.38
2023-05-15T07:24:40.436Z,95371.84
2023-05-15T07:27:07.834Z,95369.97
2023-05-15T07:29:34.613Z,95358.31
2023-05-15T07:32:01.500Z,95365.34
2023-05-15T07:34:28.599Z,95357.44
2023-05-15T07:37:00.257Z,95357.22
2023-05-15T07:39:27.138Z,95353.72
2023-05-15T07:41:53.879Z,95356.63
2023-05-15T07:44:20.561Z,95363.88
2023-05-15T07:46:48.583Z,95361.16
2023-05-15T07:49:15.405Z,95358.34
2023-05-15T07:51:42.880Z,95369.13
2023-05-15T07:54:09.595Z,95365.66
2023-05-15T07:56:36.271Z,95376.13
2023-05-15T07:59:03.196Z,95379.47
2023-05-15T08:01:31.361Z,95383.13
2023-05-15T08:03:59.579Z,95377.78
2023-05-15T08:06:26.628Z,95379.81
2023-05-15T08:08:53.534Z,95388.50
2023-05-15T08:11:28.658Z,95391.53
2023-05-15T08:13:57.354Z,95391.66
2023-05-15T08:16:31.842Z,95400.41
2023-05-15T08:19:02.202Z,95390.53
2023-05-15T08:21:29.980Z,95395.25
2023-05-15T08:24:04.122Z,95404.78
2023-05-15T08:26:33.505Z,95384.63
2023-05-15T08:29:03.727Z,95390.63
2023-05-15T08:31:30.818Z,95399.28
2023-05-15T08:33:57.518Z,95400.31
2023-05-15T08:36:26.399Z,95413.69
2023-05-15T08:38:56.970Z,95420.72
2023-05-15T08:41:39.877Z,95427.16
2023-05-15T08:44:09.693Z,95420.13
2023-05-15T08:46:36.612Z,95423.06
2023-05-15T08:49:15.717Z,95421.41
2023-05-15T08:51:51.713Z,95431.03
2023-05-15T08:54:25.510Z,95441.13
2023-05-15T08:56:59.662Z,95431.94
2023-05-15T08:59:27.879Z,95432.09
2023-05-15T09:01:58.901Z,95437.63
2023-05-15T09:04:29.092Z,95430.66
2023-05-15T09:07:00.167Z,95430.47
2023-05-15T09:17:02.775Z,95433.25
2023-05-15T09:23:29.924Z,95421.91
2023-05-15T09:26:07.515Z,95418.47
2023-05-15T10:16:18.402Z,95445.53
2023-05-15T10:29:07.504Z,95432.00
2023-05-15T10:47:48.592Z,95392.94
2023-05-15T10:50:27.821Z,95386.97
2023-05-15T10:57:22.646Z,95382.56
2023-05-15T11:00:34.030Z,95388.19
2023-05-15T11:10:44.936Z,95401.91
2023-05-15T11:13:12.177Z,95389.75
2023-05-15T11:15:43.551Z,95387.03
2023-05-15T11:18:10.775Z,95386.06
2023-05-15T11:20:43.157Z,95385.25
2023-05-15T11:23:09.885Z,95391.13
2023-05-15T11:25:37.281Z,95400.91
2023-05-15T11:28:05.168Z,95405.63
2023-05-15T11:30:38.584Z,95397.69
2023-05-15T11:33:09.085Z,95384.13
2023-05-15T11:35:46.653Z,95382.63
2023-05-15T11:38:17.258Z,95385.00
2023-05-15T11:40:43.941Z,95386.91
2023-05-15T11:43:20.819Z,95384.19
2023-05-15T11:46:08.530Z,95386.56
2023-05-15T11:48:48.013Z,95382.25
2023-05-15T11:51:21.504Z,95377.31
2023-05-15T11:53:53.160Z,95375.50
2023-05-15T11:56:21.812Z,95375.03
2023-05-15T11:58:57.075Z,95380.78
2023-05-15T12:01:23.950Z,95384.16
2023-05-15T12:03:52.319Z,95385.00
2023-05-15T12:06:19.598Z,95381.81
2023-05-15T12:08:56.294Z,95382.22
2023-05-15T12:11:24.691Z,95382.25
2023-05-15T12:13:53.987Z,95383.69
2023-05-15T12:16:27.761Z,95379.44
2023-05-15T12:18:57.378Z,95386.13
2023-05-15T12:21:26.674Z,95384.31
2023-05-15T12:24:06.485Z,95382.97
2023-05-15T12:26:35.200Z,95383.53
2023-05-15T12:29:02.238Z,95385.28
2023-05-15T12:31:29.536Z,95391.25
2023-05-15T12:33:56.985Z,95396.66
2023-05-15T12:36:23.678Z,95381.41
2023-05-15T12:38:50.881Z,95383.97
2023-05-15T12:41:19.989Z,95387.50
2023-05-15T12:43:46.729Z,95400.19
2023-05-15T12:46:14.850Z,95396.47
2023-05-15T12:48:42.041Z,95406.47
2023-05-15T12:51:09.155Z,95407.75
2023-05-15T12:53:39.633Z,95408.78
2023-05-15T12:56:07.477Z,95409.47
2023-05-15T12:58:34.507Z,95409.91
2023-05-15T13:01:03.327Z,95405.53
2023-05-15T13:03:30.697Z,95401.16
2023-05-15T13:05:57.437Z,95400.56
2023-05-15T13:08:24.254Z,95409.22
2023-05-15T13:10:57.720Z,95409.97
2023-05-15T13:13:24.617Z,95409.84
2023-05-15T13:15:51.432Z,95405.84
2023-05-15T13:18:18.625Z,95407.16
2023-05-15T13:20:46.913Z,95408.25
2023-05-15T13:23:16.255Z,95409.22
2023-05-15T13:25:43.406Z,95405.84
2023-05-15T13:28:11.105Z,95420.41
2023-05-15T13:30:42.290Z,95408.66
2023-05-15T13:33:12.079Z,95411.25
2023-05-15T13:35:40.071Z,95405.38
2023-05-15T13:38:10.372Z,95413.81
2023-05-15T13:40:38.350Z,95411.53
2023-05-15T13:43:08.306Z,95412.56
2023-05-15T13:45:35.131Z,95414.09
2023-05-15T13:48:01.972Z,95408.81
2023-05-15T13:50:28.870Z,95405.53
2023-05-15T13:52:56.037Z,95392.75
2023-05-15T13:55:23.311Z,95398.94
2023-05-15T13:57:50.126Z,95399.47
2023-05-15T14:00:17.414Z,95404.44
2023-05-15T14:02:44.923Z,95402.44
2023-05-15T14:05:13.600Z,95402.09
2023-05-15T14:07:41.480Z,95404.09
2023-05-15T14:10:08.688Z,95405.13
2023-05-15T14:12:36.138Z,95402.56
2023-05-15T14:15:02.881Z,95397.16
2023-05-15T14:17:29.611Z,95404.56
2023-05-15T14:19:56.309Z,95400.22
2023-05-15T14:22:25.042Z,95412.41
2023-05-15T14:24:53.247Z,95413.34
2023-05-15T14:27:20.821Z,95408.56
2023-05-15T14:29:49.155Z,95402.22
2023-05-15T14:32:16.857Z,95409.84
2023-05-15T14:34:43.943Z,95414.41
2023-05-15T14:37:10.752Z,95418.72
2023-05-15T14:39:37.731Z,95426.56
2023-05-15T14:42:05.033Z,95432.19
2023-05-15T14:44:32.205Z,95432.91
2023-05-15T14:47:06.851Z,95440.88
2023-05-15T14:49:34.268Z,95429.84
2023-05-15T14:52:00.912Z,95437.09
2023-05-15T14:54:27.543Z,95435.94
2023-05-15T14:56:55.718Z,95445.00
2023-05-15T14:59:25.197Z,95432.09
2023-05-15T15:01:51.855Z,95434.91
2023-05-15T15:04:18.590Z,95447.00
2023-05-15T15:06:47.366Z,95442.19
2023-05-15T15:09:14.047Z,95437.75
2023-05-15T15:11:40.706Z,95441.50
2023-05-15T15:14:07.356Z,95442.19
2023-05-15T15:16:34.203Z,95446.59
2023-05-15T15:19:00.932Z,95443.69
2023-05-15T15:21:27.819Z,95447.03
2023-05-15T15:23:55.219Z,95457.13
2023-05-15T15:26:21.896Z,95459.00
2023-05-15T15:28:48.658Z,95461.44
2023-05-15T15:31:15.815Z,95460.03
2023-05-15T15:33:42.648Z,95471.38
2023-05-15T15:36:09.324Z,95471.19
2023-05-15T15:38:36.152Z,95466.84
2023-05-15T15:41:03.784Z,95466.00
2023-05-15T15:43:30.391Z,95468.50
2023-05-15T15:45:57.027Z,95469.28
2023-05-15T15:48:23.694Z,95465.91
2023-05-15T15:50:52.145Z,95462.16
2023-05-15T15:53:18.879Z,95463.19
2023-05-15T15:55:47.140Z,95455.00
2023-05-15T15:58:14.644Z,95463.03
2023-05-15T16:00:41.435Z,95467.81
2023-05-15T16:03:08.248Z,95460.81
2023-05-15T16:05:35.049Z,95457.84
2023-05-15T16:08:01.664Z,95462.94
2023-05-15T16:10:28.509Z,95469.25
2023-05-15T16:12:55.509Z,95466.66
2023-05-15T16:15:23.691Z,95470.28
2023-05-15T16:17:53.550Z,95476.59
2023-05-15T16:20:21.116Z,95478.91
2023-05-15T16:22:47.838Z,95471.84
2023-05-15T16:25:14.505Z,95476.03
2023-05-15T16:27:41.111Z,95477.72
2023-05-15T16:30:09.364Z,95475.13
2023-05-15T16:32:36.313Z,95473.78
2023-05-15T16:35:03.617Z,95475.84
2023-05-15T16:37:30.269Z,95485.72
2023-05-15T16:39:56.945Z,95480.56
2023-05-15T16:42:23.574Z,95493.38
2023-05-15T16:44:50.303Z,95488.91
2023-05-15T16:47:17.005Z,95492.69
2023-05-15T16:49:45.283Z,95501.03
2023-05-15T16:52:13.037Z,95500.72
2023-05-15T16:54:41.914Z,95512.13
2023-05-15T16:57:08.493Z,95513.19
2023-05-15T16:59:35.170Z,95515.91
2023-05-15T17:02:01.944Z,95515.94
2023-05-15T17:04:31.450Z,95515.59
2023-05-15T17:06:59.502Z,95519.13
2023-05-15T17:09:26.446Z,95523.50
2023-05-15T17:11:53.071Z,95522.53
2023-05-15T17:14:19.815Z,95530.16
2023-05-15T17:16:46.441Z,95537.22
2023-05-15T17:19:13.330Z,95532.47
2023-05-15T17:21:40.047Z,95527.38
2023-05-15T17:24:06.840Z,95528.06
2023-05-15T17:26:33.491Z,95536.34
2023-05-15T17:29:00.342Z,95547.91
2023-05-15T17:31:29.215Z,95546.47
2023-05-15T17:33:55.911Z,95541.78
2023-05-15T17:36:22.463Z,95551.72
2023-05-15T17:38:49.126Z,95547.81
2023-05-15T17:41:15.874Z,95544.72
2023-05-15T17:43:42.502Z,95551.34
2023-05-15T17:46:09.190Z,95554.22
2023-05-15T17:48:36.277Z,95556.50
2023-05-15T17:51:02.927Z,95560.41
2023-05-15T17:53:29.613Z,95566.22
2023-05-15T17:55:56.396Z,95570.97
2023-05-15T17:58:22.998Z,95576.53
2023-05-15T18:00:51.754Z,95571.56
2023-05-15T18:03:18.496Z,95572.41
2023-05-15T18:05:47.091Z,95573.84
2023-05-15T18:08:14.395Z,95576.94
2023-05-15T18:10:41.028Z,95582.69
2023-05-15T18:13:07.816Z,95590.09
2023-05-15T18:15:35.398Z,95590.06
2023-05-15T18:18:02.760Z,95592.28
2023-05-15T18:20:29.907Z,95596.19
2023-05-15T18:22:56.603Z,95600.69
2023-05-15T18:25:23.310Z,95607.88
2023-05-15T18:27:50.016Z,95613.81
2023-05-15T18:30:16.756Z,95617.09
2023-05-15T18:32:43.518Z,95622.22
2023-05-15T18:35:10.851Z,95618.66
2023-05-15T18:37:37.526Z,95624.53
2023-05-15T18:40:05.378Z,95618.75
2023-05-15T18:42:32.053Z,95627.53
2023-05-15T18:44:58.721Z,95626.88
2023-05-15T18:47:25.441Z,95632.00
2023-05-15T18:49:52.103Z,95640.97
2023-05-15T18:52:19.029Z,95638.06
2023-05-15T18:54:45.675Z,95637.19
2023-05-15T18:57:14.357Z,95638.53
2023-05-15T18:59:41.830Z,95641.16
2023-05-15T19:02:09.741Z,95640.91
2023-05-15T19:04:36.690Z,95642.09
2023-05-15T19:07:03.381Z,95645.56
2023-05-15T19:09:30.075Z,95645.13
2023-05-15T19:11:56.816Z,95649.19
2023-05-15T19:14:23.469Z,95645.44
2023-05-15T19:16:50.171Z,95650.78
2023-05-15T19:19:18.209Z,95650.31
2023-05-15T19:21:44.995Z,95655.41
2023-05-15T19:24:11.674Z,95662.78
2023-05-15T19:26:38.323Z,95674.66
2023-05-15T19:29:05.106Z,95669.06
2023-05-15T19:31:32.544Z,95664.31
2023-05-15T19:34:00.285Z,95667.97
2023-05-15T19:36:27.208Z,95678.38
2023-05-15T19:38:53.857Z,95671.59
2023-05-15T19:41:21.673Z,95683.28
2023-05-15T19:43:50.772Z,95679.16
2023-05-15T19:46:18.168Z,95683.22
2023-05-15T19:48:45.110Z,95685.22
2023-05-15T19:51:12.165Z,95689.19
2023-05-15T19:53:38.808Z,95689.94
2023-05-15T19:56:05.988Z,95693.97
2023-05-15T19:58:32.792Z,95699.69
2023-05-15T20:00:59.431Z,95698.78
2023-05-15T20:03:32.673Z,95699.97
2023-05-15T20:06:01.679Z,95695.38
2023-05-15T20:08:29.059Z,95697.03
2023-05-15T20:10:56.105Z,95688.75
2023-05-15T20:13:23.355Z,95687.84
2023-05-15T20:15:58.059Z,95679.19
2023-05-15T20:18:25.944Z,95683.59
2023-05-15T20:20:55.847Z,95690.78
2023-05-15T20:23:22.579Z,95693.97
2023-05-15T20:25:50.369Z,95696.00
2023-05-15T20:28:17.892Z,95691.50
2023-05-15T20:30:47.479Z,95701.78
2023-05-15T20:33:14.441Z,95701.78
2023-05-15T20:35:42.827Z,95707.13
2023-05-15T20:38:10.589Z,95704.63
2023-05-15T20:40:37.718Z,95710.81
2023-05-15T20:43:04.791Z,95716.13
2023-05-15T20:45:32.443Z,95718.13
2023-05-15T20:47:59.397Z,95720.50
2023-05-15T20:50:26.642Z,95716.22
2023-05-15T20:52:53.571Z,95718.88
2023-05-15T20:55:21.700Z,95726.88
2023-05-15T20:57:50.380Z,95720.06
2023-05-15T21:00:18.170Z,95723.25
2023-05-15T21:02:46.558Z,95713.78
2023-05-15T21:05:13.648Z,95726.47
2023-05-15T21:07:40.629Z,95741.59
2023-05-15T21:10:07.986Z,95745.38
2023-05-15T21:12:34.730Z,95744.22
2023-05-15T21:15:02.456Z,95743.41
2023-05-15T21:17:29.106Z,95743.41
2023-05-15T21:19:57.687Z,95737.09
2023-05-15T21:22:24.904Z,95737.41
2023-05-15T21:24:51.844Z,95733.94
2023-05-15T21:27:18.598Z,95738.78
2023-05-15T21:29:45.230Z,95739.16
2023-05-15T21:32:11.968Z,95738.34
2023-05-15T21:34:39.356Z,95742.19
2023-05-15T21:37:06.051Z,95750.53
2023-05-15T21:39:32.685Z,95753.34
2023-05-15T21:41:59.301Z,95751.72
2023-05-15T21:44:26.006Z,95752.72
2023-05-15T21:46:52.813Z,95758.53
2023-05-15T21:49:19.536Z,95767.31
2023-05-15T21:51:46.759Z,95763.84
2023-05-15T21:54:13.502Z,95760.44
2023-05-15T21:56:41.237Z,95759.00
2023-05-15T21:59:08.212Z,95753.00
2023-05-15T22:01:36.297Z,95752.50
2023-05-15T22:04:03.161Z,95747.63
2023-05-15T22:06:29.955Z,95754.75
2023-05-15T22:08:57.581Z,95751.41
2023-05-15T22:11:24.310Z,95763.22
2023-05-15T22:13:51.116Z,95756.06
2023-05-15T22:16:17.788Z,95764.34
2023-05-15T22:18:45.045Z,95758.84
2023-05-15T22:21:12.085Z,95767.94
2023-05-15T22:23:38.707Z,95764.59
2023-05-15T22:26:05.692Z,95760.09
2023-05-15T22:28:32.317Z,95755.13
2023-05-15T22:30:58.984Z,95753.94
2023-05-15T22:33:25.797Z,95755.44
2023-05-15T22:35:53.263Z,95750.75
2023-05-15T22:38:20.560Z,95739.75
2023-05-15T22:40:54.033Z,95729.94
2023-05-15T22:43:22.574Z,95735.91
2023-05-15T22:45:49.393Z,95744.53
2023-05-15T22:48:16.060Z,95744.38
2023-05-15T22:50:44.017Z,95744.19
2023-05-15T22:53:10.710Z,95746.50
2023-05-15T22:55:37.438Z,95746.31
2023-05-15T22:58:04.178Z,95747.81
2023-05-15T23:00:31.362Z,95749.44
2023-05-15T23:02:58.182Z,95749.91
2023-05-15T23:05:25.473Z,95743.78
2023-05-15T23:07:52.997Z,95746.78
2023-05-15T23:10:19.778Z,95755.78
2023-05-15T23:12:46.802Z,95753.31
2023-05-15T23:15:13.573Z,95757.50
2023-05-15T23:17:40.560Z,95762.63
2023-05-15T23:20:10.590Z,95752.16
2023-05-15T23:22:37.340Z,95755.84
2023-05-15T23:25:04.262Z,95757.50
2023-05-15T23:27:30.935Z,95748.50
2023-05-15T23:29:57.592Z,95736.19
2023-05-15T23:32:24.361Z,95725.53
2023-05-15T23:34:52.048Z,95719.03
2023-05-15T23:37:18.943Z,95717.38
2023-05-15T23:39:45.663Z,95718.22
2023-05-15T23:42:12.567Z,95703.91
2023-05-15T23:44:39.279Z,95707.56
2023-05-15T23:47:06.656Z,95700.97
2023-05-15T23:49:33.687Z,95708.09
2023-05-15T23:52:00.660Z,95703.44
2023-05-15T23:54:27.949Z,95702.63
2023-05-15T23:56:54.846Z,95695.63
2023-05-15T23:59:21.619Z,95696.25
